Cygnus Pena — XPD6757 — position and weather

sailwx.info

Track history (hours):
 
Tides and Currents Weather Stations Pressure Air Temp Water Temp Dewpoint Dewpoint Depression Visibility Wind Speed Wind Dir Waves Ship Positions

Cygnus Pena

Last reported at 2018-Jun-12 06:41 UTC. Time now 2018-Jun-20 23:09 UTC.
Position N 41°11' W 008°47'.
Warning: this ship's position is 8 days out of date.

Length 15 m.

Type: Sailing vessel. MMSI: 219008518.

Date/timePositionNaut miles runAvg speedWind from/ knotsBaromVisibWave heightAir tempDewpointWater temp
2018-Jun-12 06:41N 41°11' W 008°47'1 5.2
2018-Jun-12 06:29N 41°10' W 008°46'2 4.0
2018-Jun-12 06:01N 41°09' W 008°44'  
2018-Jun-09 03:56N 41°09' W 008°41'2 4.8
2018-Jun-09 03:30N 41°07' W 008°42'3 6.5
2018-Jun-09 02:59N 41°04' W 008°43'109 6.5
2018-Jun-08 10:07N 39°20' W 009°29'1 7.6
2018-Jun-08 10:00N 39°19' W 009°29'3 6.0
2018-Jun-08 09:30N 39°16' W 009°30'3 6.2
2018-Jun-08 09:01N 39°13' W 009°30'3 5.6
2018-Jun-08 08:31N 39°11' W 009°31'3 6.6
2018-Jun-08 08:00N 39°07' W 009°32'4 7.2
2018-Jun-08 07:30N 39°04' W 009°33'4 7.2
2018-Jun-08 07:00N 39°00' W 009°33'4 7.2
2018-Jun-08 06:30N 38°57' W 009°34'4 7.1
2018-Jun-08 06:00N 38°53' W 009°35'4 7.0
2018-Jun-08 05:30N 38°50' W 009°36'3 6.4
2018-Jun-08 05:00N 38°47' W 009°36'3 5.9
2018-Jun-08 04:30N 38°44' W 009°37'3 5.2
2018-Jun-08 04:00N 38°41' W 009°37'3 6.0
2018-Jun-08 03:30N 38°38' W 009°37'3 6.3
2018-Jun-08 03:00N 38°35' W 009°37'3 6.0
2018-Jun-08 02:30N 38°32' W 009°37'3 5.7
2018-Jun-08 02:00N 38°29' W 009°37'3 5.6
2018-Jun-08 01:30N 38°26' W 009°37'3 5.7
2018-Jun-08 00:59N 38°23' W 009°37'2 4.5
2018-Jun-08 00:28N 38°21' W 009°37'2 3.7
2018-Jun-08 00:01N 38°19' W 009°36'2 3.9
2018-Jun-07 23:30N 38°18' W 009°35'2 4.0
2018-Jun-07 22:59N 38°16' W 009°35'2 3.6
2018-Jun-07 22:30N 38°14' W 009°34'2 4.4
2018-Jun-07 21:58N 38°12' W 009°33'3 6.1
2018-Jun-07 21:26N 38°09' W 009°31'3 6.3
2018-Jun-07 21:00N 38°06' W 009°30'4 7.0
2018-Jun-07 20:30N 38°03' W 009°29'4 7.2
2018-Jun-07 20:00N 37°60' W 009°27'3 6.6
2018-Jun-07 19:30N 37°56' W 009°26'3 6.2
2018-Jun-07 18:59N 37°53' W 009°24'3 6.2
2018-Jun-07 18:30N 37°51' W 009°23'3 6.4
2018-Jun-07 18:00N 37°48' W 009°22'3 6.7
2018-Jun-07 17:30N 37°44' W 009°20'3 6.5
2018-Jun-07 16:59N 37°41' W 009°19'3 5.8
2018-Jun-07 16:30N 37°39' W 009°18'45 5.2
2018-Jun-07 07:55N 37°00' W 008°49'3 6.5
2018-Jun-07 07:30N 37°01' W 008°46'3 6.1
2018-Jun-07 06:59N 37°02' W 008°43'3 6.0
2018-Jun-07 06:30N 37°04' W 008°40'2 3.8
2018-Jun-07 05:54N 37°06' W 008°40'0 0.0
2018-Jun-06 14:51N 37°06' W 008°40'0 0.0
2018-Jun-06 14:30N 37°06' W 008°40'0 0.0
2018-Jun-06 08:34N 37°06' W 008°40'0 0.0
2018-Jun-05 08:01N 37°06' W 008°40'0 0.0
2018-Jun-05 07:40N 37°06' W 008°40'0 0.0
2018-Jun-05 07:10N 37°06' W 008°40'0 0.0
2018-Jun-05 06:55N 37°06' W 008°40'0 0.0
2018-Jun-05 05:37N 37°06' W 008°40'0 0.0
2018-Jun-05 05:25N 37°06' W 008°40'0 0.0
2018-Jun-05 04:43N 37°06' W 008°40'0 0.0
2018-Jun-05 04:28N 37°06' W 008°40'0 0.0
2018-Jun-05 03:58N 37°06' W 008°40'0 0.0
2018-Jun-05 03:28N 37°06' W 008°40'0 0.0
2018-Jun-05 02:58N 37°06' W 008°40'0 0.0
2018-Jun-05 02:28N 37°06' W 008°40'0 0.0
2018-Jun-05 01:52N 37°06' W 008°40'0 0.0
2018-Jun-05 01:27N 37°06' W 008°40'0 0.0
2018-Jun-05 00:57N 37°06' W 008°40'0 0.0
2018-Jun-05 00:30N 37°06' W 008°40'0 0.0
2018-Jun-04 23:54N 37°06' W 008°40'0 0.0
2018-Jun-04 23:27N 37°06' W 008°40'0 0.0
2018-Jun-04 22:51N 37°06' W 008°40'0 0.0
2018-Jun-04 22:27N 37°06' W 008°40'0 0.0
2018-Jun-04 22:00N 37°06' W 008°40'0 0.0
2018-Jun-04 21:28N 37°06' W 008°40'0 0.0
2018-Jun-04 20:58N 37°06' W 008°40'0 0.0
2018-Jun-04 20:25N 37°06' W 008°40'0 0.0
2018-Jun-04 19:58N 37°06' W 008°40'0 0.0
2018-Jun-04 19:25N 37°06' W 008°40'0 0.0
2018-Jun-04 19:01N 37°06' W 008°40'0 0.0
2018-Jun-04 18:24N 37°06' W 008°40'0 0.0
2018-Jun-04 18:00N 37°06' W 008°40'0 0.0
2018-Jun-04 17:30N 37°06' W 008°40'0 0.0
2018-Jun-04 16:54N 37°06' W 008°40'0 0.0
2018-Jun-04 16:30N 37°06' W 008°40'0 0.0
2018-Jun-04 16:00N 37°06' W 008°40'0 0.1
2018-Jun-04 15:25N 37°06' W 008°40'0 0.0
2018-Jun-04 14:58N 37°06' W 008°40'0 0.0
2018-Jun-04 14:28N 37°06' W 008°40'0 0.0
2018-Jun-04 13:58N 37°06' W 008°40'0 0.0
2018-Jun-04 13:28N 37°06' W 008°40'0 0.0
2018-Jun-04 12:52N 37°06' W 008°40'0 0.0
2018-Jun-04 12:28N 37°06' W 008°40'0 0.0
2018-Jun-04 11:58N 37°06' W 008°40'0 0.0
2018-Jun-04 11:28N 37°06' W 008°40'0 0.0
2018-Jun-04 10:52N 37°06' W 008°40'0 0.0
2018-Jun-04 10:28N 37°06' W 008°40'0 0.0
2018-Jun-04 09:52N 37°06' W 008°40'  
Track history (hours):
 
Tides and Currents Weather Stations Pressure Air Temp Water Temp Dewpoint Dewpoint Depression Visibility Wind Speed Wind Dir Waves Ship Positions

Cygnus Pena

Last reported at 2018-Jun-12 06:41 UTC. Time now 2018-Jun-20 23:09 UTC.
Position N 41°11' W 008°47'.
Warning: this ship's position is 8 days out of date.

Length 15 m.

Type: Sailing vessel. MMSI: 219008518.

Date/timePositionNaut miles runAvg speedWind from/ knotsBaromVisibWave heightAir tempDewpointWater temp
2018-Jun-12 06:41N 41°11' W 008°47'1 5.2
2018-Jun-12 06:29N 41°10' W 008°46'2 4.0
2018-Jun-12 06:01N 41°09' W 008°44'  
2018-Jun-09 03:56N 41°09' W 008°41'2 4.8
2018-Jun-09 03:30N 41°07' W 008°42'3 6.5
2018-Jun-09 02:59N 41°04' W 008°43'109 6.5
2018-Jun-08 10:07N 39°20' W 009°29'1 7.6
2018-Jun-08 10:00N 39°19' W 009°29'3 6.0
2018-Jun-08 09:30N 39°16' W 009°30'3 6.2
2018-Jun-08 09:01N 39°13' W 009°30'3 5.6
2018-Jun-08 08:31N 39°11' W 009°31'3 6.6
2018-Jun-08 08:00N 39°07' W 009°32'4 7.2
2018-Jun-08 07:30N 39°04' W 009°33'4 7.2
2018-Jun-08 07:00N 39°00' W 009°33'4 7.2
2018-Jun-08 06:30N 38°57' W 009°34'4 7.1
2018-Jun-08 06:00N 38°53' W 009°35'4 7.0
2018-Jun-08 05:30N 38°50' W 009°36'3 6.4
2018-Jun-08 05:00N 38°47' W 009°36'3 5.9
2018-Jun-08 04:30N 38°44' W 009°37'3 5.2
2018-Jun-08 04:00N 38°41' W 009°37'3 6.0
2018-Jun-08 03:30N 38°38' W 009°37'3 6.3
2018-Jun-08 03:00N 38°35' W 009°37'3 6.0
2018-Jun-08 02:30N 38°32' W 009°37'3 5.7
2018-Jun-08 02:00N 38°29' W 009°37'3 5.6
2018-Jun-08 01:30N 38°26' W 009°37'3 5.7
2018-Jun-08 00:59N 38°23' W 009°37'2 4.5
2018-Jun-08 00:28N 38°21' W 009°37'2 3.7
2018-Jun-08 00:01N 38°19' W 009°36'2 3.9
2018-Jun-07 23:30N 38°18' W 009°35'2 4.0
2018-Jun-07 22:59N 38°16' W 009°35'2 3.6
2018-Jun-07 22:30N 38°14' W 009°34'2 4.4
2018-Jun-07 21:58N 38°12' W 009°33'3 6.1
2018-Jun-07 21:26N 38°09' W 009°31'3 6.3
2018-Jun-07 21:00N 38°06' W 009°30'4 7.0
2018-Jun-07 20:30N 38°03' W 009°29'4 7.2
2018-Jun-07 20:00N 37°60' W 009°27'3 6.6
2018-Jun-07 19:30N 37°56' W 009°26'3 6.2
2018-Jun-07 18:59N 37°53' W 009°24'3 6.2
2018-Jun-07 18:30N 37°51' W 009°23'3 6.4
2018-Jun-07 18:00N 37°48' W 009°22'3 6.7
2018-Jun-07 17:30N 37°44' W 009°20'3 6.5
2018-Jun-07 16:59N 37°41' W 009°19'3 5.8
2018-Jun-07 16:30N 37°39' W 009°18'45 5.2
2018-Jun-07 07:55N 37°00' W 008°49'3 6.5
2018-Jun-07 07:30N 37°01' W 008°46'3 6.1
2018-Jun-07 06:59N 37°02' W 008°43'3 6.0
2018-Jun-07 06:30N 37°04' W 008°40'2 3.8
2018-Jun-07 05:54N 37°06' W 008°40'0 0.0
2018-Jun-06 14:51N 37°06' W 008°40'0 0.0
2018-Jun-06 14:30N 37°06' W 008°40'0 0.0
2018-Jun-06 08:34N 37°06' W 008°40'0 0.0
2018-Jun-05 08:01N 37°06' W 008°40'0 0.0
2018-Jun-05 07:40N 37°06' W 008°40'0 0.0
2018-Jun-05 07:10N 37°06' W 008°40'0 0.0
2018-Jun-05 06:55N 37°06' W 008°40'0 0.0
2018-Jun-05 05:37N 37°06' W 008°40'0 0.0
2018-Jun-05 05:25N 37°06' W 008°40'0 0.0
2018-Jun-05 04:43N 37°06' W 008°40'0 0.0
2018-Jun-05 04:28N 37°06' W 008°40'0 0.0
2018-Jun-05 03:58N 37°06' W 008°40'0 0.0
2018-Jun-05 03:28N 37°06' W 008°40'0 0.0
2018-Jun-05 02:58N 37°06' W 008°40'0 0.0
2018-Jun-05 02:28N 37°06' W 008°40'0 0.0
2018-Jun-05 01:52N 37°06' W 008°40'0 0.0
2018-Jun-05 01:27N 37°06' W 008°40'0 0.0
2018-Jun-05 00:57N 37°06' W 008°40'0 0.0
2018-Jun-05 00:30N 37°06' W 008°40'0 0.0
2018-Jun-04 23:54N 37°06' W 008°40'0 0.0
2018-Jun-04 23:27N 37°06' W 008°40'0 0.0
2018-Jun-04 22:51N 37°06' W 008°40'0 0.0
2018-Jun-04 22:27N 37°06' W 008°40'0 0.0
2018-Jun-04 22:00N 37°06' W 008°40'0 0.0
2018-Jun-04 21:28N 37°06' W 008°40'0 0.0
2018-Jun-04 20:58N 37°06' W 008°40'0 0.0
2018-Jun-04 20:25N 37°06' W 008°40'0 0.0
2018-Jun-04 19:58N 37°06' W 008°40'0 0.0
2018-Jun-04 19:25N 37°06' W 008°40'0 0.0
2018-Jun-04 19:01N 37°06' W 008°40'0 0.0
2018-Jun-04 18:24N 37°06' W 008°40'0 0.0
2018-Jun-04 18:00N 37°06' W 008°40'0 0.0
2018-Jun-04 17:30N 37°06' W 008°40'0 0.0
2018-Jun-04 16:54N 37°06' W 008°40'0 0.0
2018-Jun-04 16:30N 37°06' W 008°40'0 0.0
2018-Jun-04 16:00N 37°06' W 008°40'0 0.1
2018-Jun-04 15:25N 37°06' W 008°40'0 0.0
2018-Jun-04 14:58N 37°06' W 008°40'0 0.0
2018-Jun-04 14:28N 37°06' W 008°40'0 0.0
2018-Jun-04 13:58N 37°06' W 008°40'0 0.0
2018-Jun-04 13:28N 37°06' W 008°40'0 0.0
2018-Jun-04 12:52N 37°06' W 008°40'0 0.0
2018-Jun-04 12:28N 37°06' W 008°40'0 0.0
2018-Jun-04 11:58N 37°06' W 008°40'0 0.0
2018-Jun-04 11:28N 37°06' W 008°40'0 0.0
2018-Jun-04 10:52N 37°06' W 008°40'0 0.0
2018-Jun-04 10:28N 37°06' W 008°40'0 0.0
2018-Jun-04 09:52N 37°06' W 008°40'  

Dump ship's entire track history